createdAt,value
2022-10-18T00:01:03.731Z,11.63
2022-10-18T00:02:35.507Z,11.69
2022-10-18T00:04:07.254Z,11.65
2022-10-18T00:05:38.985Z,11.71
2022-10-18T00:07:10.715Z,11.76
2022-10-18T00:08:42.500Z,11.93
2022-10-18T00:10:15.535Z,11.92
2022-10-18T00:11:47.473Z,11.71
2022-10-18T00:13:19.335Z,11.60
2022-10-18T00:14:51.149Z,11.60
2022-10-18T00:16:23.087Z,11.51
2022-10-18T00:17:54.859Z,11.49
2022-10-18T00:19:29.184Z,11.28
2022-10-18T00:21:01.922Z,11.43
2022-10-18T00:22:34.179Z,11.60
2022-10-18T00:24:06.410Z,11.47
2022-10-18T00:25:39.541Z,11.46
2022-10-18T00:27:11.319Z,11.12
2022-10-18T00:28:43.180Z,11.49
2022-10-18T00:30:14.981Z,11.63
2022-10-18T00:31:46.673Z,11.62
2022-10-18T00:33:18.401Z,11.64
2022-10-18T00:34:50.213Z,11.36
2022-10-18T00:36:21.903Z,11.52
2022-10-18T00:37:53.711Z,11.39
2022-10-18T00:39:25.524Z,11.56
2022-10-18T00:40:58.654Z,11.30
2022-10-18T00:42:31.954Z,11.24
2022-10-18T00:44:05.006Z,11.33
2022-10-18T00:45:36.685Z,11.23
2022-10-18T00:47:09.366Z,11.22
2022-10-18T00:48:41.139Z,11.34
2022-10-18T00:50:12.945Z,11.59
2022-10-18T00:51:46.306Z,11.30
2022-10-18T00:53:19.007Z,11.38
2022-10-18T00:54:50.856Z,11.58
2022-10-18T00:56:23.935Z,11.52
2022-10-18T00:57:55.660Z,11.43
2022-10-18T00:59:27.633Z,11.38
2022-10-18T01:00:59.350Z,11.28
2022-10-18T01:02:31.270Z,11.33
2022-10-18T01:04:03.345Z,11.39
2022-10-18T01:05:36.502Z,11.07
2022-10-18T01:07:13.190Z,11.09
2022-10-18T01:08:50.497Z,11.22
2022-10-18T01:10:27.122Z,11.26
2022-10-18T01:12:13.659Z,11.33
2022-10-18T01:13:54.221Z,11.49
2022-10-18T01:15:27.333Z,11.41
2022-10-18T01:17:00.529Z,11.39
2022-10-18T01:18:36.255Z,11.32
2022-10-18T01:20:32.362Z,11.50
2022-10-18T01:22:06.794Z,11.32
2022-10-18T01:24:03.632Z,11.14
2022-10-18T01:25:42.135Z,11.33
2022-10-18T01:27:52.646Z,11.42
2022-10-18T01:29:30.515Z,11.43
2022-10-18T01:31:03.807Z,11.52
2022-10-18T01:32:36.567Z,11.22
2022-10-18T01:34:08.510Z,11.32
2022-10-18T01:35:42.357Z,11.40
2022-10-18T01:37:14.868Z,11.11
2022-10-18T01:38:47.381Z,11.43
2022-10-18T01:40:20.407Z,11.43
2022-10-18T01:41:52.150Z,11.51
2022-10-18T01:43:23.857Z,11.51
2022-10-18T01:44:55.549Z,11.33
2022-10-18T01:46:28.696Z,11.52
2022-10-18T01:48:00.448Z,11.49
2022-10-18T01:49:33.351Z,11.57
2022-10-18T01:51:05.381Z,11.65
2022-10-18T01:52:47.944Z,11.61
2022-10-18T01:54:21.814Z,11.27
2022-10-18T01:56:02.544Z,11.15
2022-10-18T01:57:37.051Z,11.30
2022-10-18T01:59:17.434Z,11.27
2022-10-18T02:00:50.065Z,11.29
2022-10-18T02:02:32.243Z,11.50
2022-10-18T02:04:08.136Z,11.45
2022-10-18T02:05:41.125Z,11.54
2022-10-18T02:07:16.887Z,11.33
2022-10-18T02:08:50.559Z,11.45
2022-10-18T02:10:24.927Z,11.60
2022-10-18T02:11:56.707Z,11.47
2022-10-18T02:13:30.207Z,11.52
2022-10-18T02:15:02.122Z,11.58
2022-10-18T02:16:36.030Z,11.54
2022-10-18T02:18:11.102Z,11.53
2022-10-18T02:19:44.182Z,11.66
2022-10-18T02:21:17.603Z,11.68
2022-10-18T02:22:49.471Z,11.54
2022-10-18T02:24:21.220Z,11.40
2022-10-18T02:25:52.976Z,11.30
2022-10-18T02:27:24.733Z,11.42
2022-10-18T02:28:56.524Z,11.44
2022-10-18T02:30:29.491Z,11.63
2022-10-18T02:32:04.436Z,11.46
2022-10-18T02:33:39.521Z,11.47
2022-10-18T02:35:11.779Z,11.58
2022-10-18T02:36:45.525Z,11.72
2022-10-18T02:38:17.396Z,11.63
2022-10-18T02:39:49.426Z,11.69
2022-10-18T02:41:24.707Z,11.73
2022-10-18T02:42:57.193Z,11.62
2022-10-18T02:44:28.988Z,11.49
2022-10-18T02:46:00.787Z,11.47
2022-10-18T02:47:34.457Z,11.64
2022-10-18T02:49:07.796Z,11.73
2022-10-18T02:50:39.466Z,11.68
2022-10-18T02:52:11.630Z,11.64
2022-10-18T02:53:43.381Z,11.64
2022-10-18T02:55:15.236Z,11.66
2022-10-18T02:56:47.089Z,11.79
2022-10-18T02:58:18.837Z,11.64
2022-10-18T02:59:50.542Z,11.61
2022-10-18T03:01:22.329Z,11.77
2022-10-18T03:02:54.778Z,11.74
2022-10-18T03:06:00.562Z,11.65
2022-10-18T03:07:32.559Z,11.67
2022-10-18T03:09:05.011Z,11.69
2022-10-18T03:10:36.776Z,11.56
2022-10-18T03:12:08.576Z,11.58
2022-10-18T03:13:42.418Z,11.62
2022-10-18T03:15:14.255Z,11.60
2022-10-18T03:16:45.974Z,11.71
2022-10-18T03:18:17.715Z,11.70
2022-10-18T03:19:50.744Z,11.74
2022-10-18T03:21:22.564Z,11.74
2022-10-18T03:22:54.322Z,11.83
2022-10-18T03:24:26.095Z,11.78
2022-10-18T03:25:57.837Z,11.91
2022-10-18T03:27:29.814Z,11.86
2022-10-18T03:29:01.816Z,11.79
2022-10-18T03:30:33.666Z,11.70
2022-10-18T03:32:05.818Z,11.64
2022-10-18T03:33:37.751Z,11.73
2022-10-18T03:35:11.147Z,11.75
2022-10-18T03:36:42.850Z,11.70
2022-10-18T03:38:14.621Z,11.69
2022-10-18T03:39:46.488Z,11.73
2022-10-18T03:41:18.310Z,11.69
2022-10-18T03:42:51.884Z,11.66
2022-10-18T03:44:23.724Z,11.66
2022-10-18T03:46:01.202Z,11.74
2022-10-18T03:47:32.913Z,11.74
2022-10-18T03:49:04.703Z,11.80
2022-10-18T03:50:37.767Z,11.91
2022-10-18T03:52:09.566Z,11.95
2022-10-18T03:53:41.356Z,11.97
2022-10-18T03:55:13.090Z,11.88
2022-10-18T03:56:44.787Z,11.82
2022-10-18T03:58:16.656Z,11.84
2022-10-18T03:59:48.878Z,11.84
2022-10-18T04:01:20.704Z,11.81
2022-10-18T04:02:55.071Z,11.83
2022-10-18T04:04:27.781Z,11.87
2022-10-18T04:06:03.430Z,11.93
2022-10-18T04:09:09.483Z,11.80
2022-10-18T04:10:42.101Z,11.68
2022-10-18T04:12:13.881Z,11.74
2022-10-18T04:13:45.800Z,11.92
2022-10-18T04:15:17.739Z,11.98
2022-10-18T04:16:49.518Z,11.82
2022-10-18T04:18:21.270Z,11.73
2022-10-18T04:19:53.001Z,11.76
2022-10-18T04:21:26.041Z,11.83
2022-10-18T04:22:58.173Z,11.87
2022-10-18T04:24:29.866Z,11.87
2022-10-18T04:26:01.505Z,11.83
2022-10-18T04:27:33.326Z,11.84
2022-10-18T04:29:05.335Z,11.77
2022-10-18T04:30:37.015Z,11.78
2022-10-18T04:32:08.678Z,11.90
2022-10-18T04:33:40.422Z,11.87
2022-10-18T04:35:12.092Z,11.71
2022-10-18T04:36:45.144Z,11.67
2022-10-18T04:38:16.885Z,11.64
2022-10-18T04:39:51.362Z,11.63
2022-10-18T04:41:25.440Z,11.69
2022-10-18T04:42:57.095Z,11.80
2022-10-18T04:44:28.749Z,11.76
2022-10-18T04:46:00.595Z,11.84
2022-10-18T04:47:32.506Z,11.71
2022-10-18T04:49:04.415Z,11.75
2022-10-18T04:50:36.032Z,11.87
2022-10-18T04:52:09.220Z,11.82
2022-10-18T04:53:40.863Z,11.66
2022-10-18T04:55:12.517Z,11.75
2022-10-18T04:56:44.132Z,11.79
2022-10-18T04:58:16.035Z,11.93
2022-10-18T04:59:47.754Z,12.00
2022-10-18T05:01:19.444Z,11.81
2022-10-18T05:02:55.753Z,11.74
2022-10-18T05:04:27.606Z,11.62
2022-10-18T05:06:03.053Z,11.57
2022-10-18T05:07:36.613Z,11.59
2022-10-18T05:09:08.297Z,11.74
2022-10-18T05:10:39.939Z,11.74
2022-10-18T05:12:11.609Z,11.62
2022-10-18T05:13:45.951Z,11.73
2022-10-18T05:15:18.966Z,11.76
2022-10-18T05:16:50.587Z,11.71
2022-10-18T05:18:22.458Z,11.49
2022-10-18T05:19:54.090Z,11.52
2022-10-18T05:21:25.741Z,11.62
2022-10-18T05:22:58.861Z,11.50
2022-10-18T05:24:30.579Z,11.34
2022-10-18T05:26:03.299Z,11.28
2022-10-18T05:27:34.969Z,11.38
2022-10-18T05:29:06.736Z,11.58
2022-10-18T05:30:38.870Z,11.55
2022-10-18T05:32:10.581Z,11.70
2022-10-18T05:33:42.340Z,11.54
2022-10-18T05:35:14.533Z,11.52
2022-10-18T05:36:46.460Z,11.65
2022-10-18T05:38:19.561Z,11.57
2022-10-18T05:39:51.272Z,11.50
2022-10-18T05:41:23.004Z,11.36
2022-10-18T05:42:54.642Z,11.37
2022-10-18T05:44:26.455Z,11.46
2022-10-18T05:45:58.173Z,11.45
2022-10-18T05:47:29.903Z,11.47
2022-10-18T05:49:01.782Z,11.60
2022-10-18T05:50:36.682Z,11.60
2022-10-18T05:52:11.432Z,11.55
2022-10-18T05:53:44.616Z,11.51
2022-10-18T05:55:16.454Z,11.62
2022-10-18T05:56:48.287Z,11.71
2022-10-18T05:58:21.497Z,11.69
2022-10-18T05:59:53.261Z,11.76
2022-10-18T06:01:25.010Z,11.78
2022-10-18T06:03:00.212Z,11.75
2022-10-18T06:04:32.385Z,11.89
2022-10-18T06:06:05.377Z,11.86
2022-10-18T06:07:37.164Z,11.81
2022-10-18T06:09:10.282Z,11.67
2022-10-18T06:10:41.943Z,11.58
2022-10-18T06:12:13.546Z,11.61
2022-10-18T06:13:46.815Z,11.58
2022-10-18T06:15:18.800Z,11.68
2022-10-18T06:16:50.604Z,11.59
2022-10-18T06:18:22.374Z,11.61
2022-10-18T06:19:54.116Z,11.81
2022-10-18T06:21:25.841Z,11.96
2022-10-18T06:22:57.555Z,11.94
2022-10-18T06:24:30.636Z,11.75
2022-10-18T06:26:03.183Z,11.61
2022-10-18T06:27:35.264Z,11.55
2022-10-18T06:29:07.166Z,11.65
2022-10-18T06:30:38.973Z,11.72
2022-10-18T06:32:10.702Z,11.82
2022-10-18T06:33:42.429Z,11.86
2022-10-18T06:35:14.170Z,11.86
2022-10-18T06:36:45.870Z,11.87
2022-10-18T06:38:17.678Z,11.84
2022-10-18T06:39:50.952Z,11.66
2022-10-18T06:41:22.751Z,11.61
2022-10-18T06:43:05.791Z,11.78
2022-10-18T06:44:42.468Z,11.68
2022-10-18T06:46:14.211Z,11.69
2022-10-18T06:47:45.965Z,11.74
2022-10-18T06:49:19.205Z,11.82
2022-10-18T06:50:55.294Z,11.93
2022-10-18T06:52:28.251Z,12.00
2022-10-18T06:54:16.734Z,12.05
2022-10-18T06:55:51.322Z,12.07
2022-10-18T06:57:23.205Z,12.06
2022-10-18T06:59:31.874Z,12.07
2022-10-18T07:02:01.189Z,12.04
2022-10-18T07:04:10.406Z,11.96
2022-10-18T07:06:42.236Z,11.98
2022-10-18T07:08:32.502Z,12.10
2022-10-18T07:10:23.669Z,12.12
2022-10-18T07:11:57.217Z,12.19
2022-10-18T07:14:07.370Z,12.21
2022-10-18T07:15:39.193Z,12.20
2022-10-18T07:17:15.131Z,12.13
2022-10-18T07:18:48.351Z,12.18
2022-10-18T07:20:20.111Z,12.31
2022-10-18T07:21:51.921Z,12.33
2022-10-18T07:23:24.038Z,12.40
2022-10-18T07:25:16.663Z,12.27
2022-10-18T07:26:48.522Z,12.33
2022-10-18T07:28:21.766Z,12.38
2022-10-18T07:29:53.561Z,12.32
2022-10-18T07:31:25.495Z,12.41
2022-10-18T07:32:57.456Z,12.48
2022-10-18T07:34:29.341Z,12.48
2022-10-18T07:36:01.705Z,12.56
2022-10-18T07:37:33.668Z,12.62
2022-10-18T07:39:05.748Z,12.62
2022-10-18T07:40:37.776Z,12.53
2022-10-18T07:42:09.567Z,12.60
2022-10-18T07:43:44.005Z,12.63
2022-10-18T07:45:15.919Z,12.67
2022-10-18T07:46:47.698Z,12.69
2022-10-18T07:48:19.550Z,12.70
2022-10-18T07:49:51.559Z,12.69
2022-10-18T07:51:23.509Z,12.71
2022-10-18T07:52:55.491Z,12.72
2022-10-18T07:54:27.279Z,12.66
2022-10-18T07:55:59.193Z,12.67
2022-10-18T07:57:31.732Z,12.85
2022-10-18T07:59:05.223Z,12.92
2022-10-18T08:00:37.130Z,13.00
2022-10-18T08:02:09.482Z,13.04
2022-10-18T08:03:41.572Z,13.04
2022-10-18T08:05:13.454Z,12.97
2022-10-18T08:06:47.962Z,13.01
2022-10-18T08:08:20.054Z,13.13
2022-10-18T08:09:51.957Z,13.21
2022-10-18T08:11:25.198Z,13.18
2022-10-18T08:13:00.187Z,13.28
2022-10-18T08:14:33.517Z,13.17
2022-10-18T08:16:06.464Z,13.25
2022-10-18T08:17:38.307Z,13.21
2022-10-18T08:19:11.229Z,13.20
2022-10-18T08:20:43.574Z,13.13
2022-10-18T08:22:15.529Z,13.19
2022-10-18T08:23:47.558Z,13.31
2022-10-18T08:25:21.371Z,13.36
2022-10-18T08:26:53.281Z,13.19
2022-10-18T08:28:25.419Z,13.09
2022-10-18T08:30:00.020Z,13.23
2022-10-18T08:31:32.010Z,13.28
2022-10-18T08:33:03.891Z,13.27
2022-10-18T08:34:41.766Z,13.05
2022-10-18T08:36:15.023Z,13.07
2022-10-18T08:37:47.314Z,13.05
2022-10-18T08:39:19.214Z,13.29
2022-10-18T08:40:51.185Z,13.31
2022-10-18T08:42:39.689Z,13.39
2022-10-18T08:44:14.096Z,13.44
2022-10-18T08:45:47.576Z,13.50
2022-10-18T08:47:20.376Z,13.47
2022-10-18T08:48:54.587Z,13.39
2022-10-18T08:50:27.908Z,13.44
2022-10-18T08:51:59.783Z,13.42
2022-10-18T08:53:36.190Z,13.27
2022-10-18T08:55:12.558Z,13.45
2022-10-18T08:56:46.744Z,13.64
2022-10-18T08:58:19.989Z,13.71
2022-10-18T08:59:53.545Z,13.83
2022-10-18T09:01:29.179Z,13.82
2022-10-18T09:03:10.279Z,13.95
2022-10-18T09:04:47.143Z,13.91
2022-10-18T09:06:22.748Z,13.92
2022-10-18T09:08:03.531Z,13.89
2022-10-18T09:09:38.162Z,13.90
2022-10-18T09:11:21.826Z,13.98
2022-10-18T09:13:06.484Z,14.02
2022-10-18T09:15:15.381Z,14.16
2022-10-18T09:16:50.698Z,14.20
2022-10-18T09:18:37.276Z,14.31
2022-10-18T09:20:16.483Z,14.39
2022-10-18T09:21:51.153Z,14.41
2022-10-18T09:23:27.006Z,14.44
2022-10-18T09:25:02.342Z,14.43
2022-10-18T09:26:38.135Z,14.49
2022-10-18T09:28:15.436Z,14.61
2022-10-18T09:29:54.258Z,14.69
2022-10-18T09:31:28.216Z,14.35
2022-10-18T09:33:05.403Z,14.28
2022-10-18T09:34:38.611Z,14.17
2022-10-18T09:36:11.333Z,14.16
2022-10-18T09:37:43.092Z,14.12
2022-10-18T09:39:15.473Z,14.35
2022-10-18T09:40:51.128Z,14.36
2022-10-18T09:42:26.713Z,14.20
2022-10-18T09:43:59.078Z,14.25
2022-10-18T09:45:31.977Z,14.30
2022-10-18T09:47:06.433Z,14.16
2022-10-18T09:48:43.186Z,13.88
2022-10-18T09:50:18.014Z,14.10
2022-10-18T09:51:50.157Z,14.18
2022-10-18T09:53:25.310Z,14.15
2022-10-18T09:54:58.129Z,14.21
2022-10-18T09:56:30.215Z,14.38
2022-10-18T09:58:02.731Z,14.51
2022-10-18T09:59:36.427Z,14.48
2022-10-18T10:01:08.407Z,14.63
2022-10-18T10:02:40.241Z,14.67
2022-10-18T10:04:15.415Z,14.69
2022-10-18T10:05:47.098Z,14.79
2022-10-18T10:07:19.527Z,14.87
2022-10-18T10:08:54.792Z,14.91
2022-10-18T10:10:27.194Z,14.99
2022-10-18T10:11:59.035Z,15.22
2022-10-18T10:13:31.198Z,15.25
2022-10-18T10:15:12.185Z,15.27
2022-10-18T10:16:54.222Z,15.53
2022-10-18T10:18:26.469Z,15.48
2022-10-18T10:20:02.090Z,15.41
2022-10-18T10:21:33.788Z,15.48
2022-10-18T10:23:07.136Z,15.38
2022-10-18T10:24:47.711Z,15.32
2022-10-18T10:26:22.599Z,15.44
2022-10-18T10:27:54.425Z,15.55
2022-10-18T10:29:56.658Z,15.75
2022-10-18T10:31:29.086Z,15.86
2022-10-18T10:33:00.721Z,15.89
2022-10-18T10:34:32.495Z,16.00
2022-10-18T10:36:07.123Z,15.99
2022-10-18T10:37:38.976Z,16.21
2022-10-18T10:39:12.275Z,16.38
2022-10-18T10:40:46.465Z,16.47
2022-10-18T10:42:18.129Z,16.26
2022-10-18T10:43:50.318Z,16.30
2022-10-18T10:45:22.305Z,16.45
2022-10-18T10:46:55.118Z,16.43
2022-10-18T10:48:29.909Z,16.46
2022-10-18T10:50:09.588Z,16.55
2022-10-18T10:51:43.619Z,16.48
2022-10-18T10:53:32.708Z,16.50
2022-10-18T10:55:11.391Z,16.63
2022-10-18T10:56:56.734Z,16.71
2022-10-18T10:58:29.379Z,16.62
2022-10-18T11:00:01.078Z,16.51
2022-10-18T11:01:33.050Z,16.55
2022-10-18T11:03:27.275Z,16.86
2022-10-18T11:05:16.638Z,17.07
2022-10-18T11:06:56.486Z,17.22
2022-10-18T11:08:29.620Z,17.21
2022-10-18T11:10:02.390Z,17.37
2022-10-18T11:11:39.905Z,17.35
2022-10-18T11:13:23.447Z,17.42
2022-10-18T11:14:59.541Z,17.52
2022-10-18T11:16:32.973Z,17.55
2022-10-18T11:18:09.386Z,17.72
2022-10-18T11:19:48.948Z,17.89
2022-10-18T11:21:23.120Z,18.02
2022-10-18T11:23:03.502Z,18.15
2022-10-18T11:24:35.526Z,18.07
2022-10-18T11:26:31.003Z,18.06
2022-10-18T11:28:04.262Z,18.13
2022-10-18T11:29:43.689Z,18.21
2022-10-18T11:31:17.659Z,18.08
2022-10-18T11:32:52.501Z,18.17
2022-10-18T11:34:49.409Z,17.93
2022-10-18T11:38:10.794Z,17.86
2022-10-18T11:39:48.779Z,17.91
2022-10-18T11:41:28.411Z,17.59
2022-10-18T11:43:03.379Z,17.85
2022-10-18T11:44:37.402Z,17.88
2022-10-18T11:46:12.072Z,18.06
2022-10-18T11:47:49.091Z,18.09
2022-10-18T11:49:46.037Z,17.93
2022-10-18T11:51:29.683Z,17.88
2022-10-18T11:53:16.514Z,18.09
2022-10-18T11:55:01.073Z,17.67
2022-10-18T11:56:38.295Z,17.90
2022-10-18T11:58:18.518Z,17.93
2022-10-18T11:59:54.146Z,17.76
2022-10-18T12:01:28.749Z,17.45
2022-10-18T12:03:12.428Z,17.32
2022-10-18T12:05:05.123Z,17.57
2022-10-18T12:06:38.866Z,17.58
2022-10-18T12:08:13.432Z,17.49
2022-10-18T12:09:45.900Z,18.01
2022-10-18T12:11:19.630Z,18.30
2022-10-18T12:12:52.356Z,18.42
2022-10-18T12:14:25.928Z,18.21
2022-10-18T12:15:57.573Z,18.07
2022-10-18T12:17:47.542Z,18.00
2022-10-18T12:19:26.212Z,18.18
2022-10-18T12:20:58.834Z,18.22
2022-10-18T12:22:34.713Z,18.15
2022-10-18T12:24:09.180Z,18.23
2022-10-18T12:25:42.142Z,18.34
2022-10-18T12:27:15.123Z,18.95
2022-10-18T12:28:51.580Z,18.99
2022-10-18T12:30:27.184Z,19.00
2022-10-18T12:31:59.504Z,18.90
2022-10-18T12:33:36.345Z,18.89
2022-10-18T12:35:11.250Z,18.91
2022-10-18T12:37:11.078Z,19.44
2022-10-18T12:38:43.756Z,19.30
2022-10-18T12:40:21.125Z,19.36
2022-10-18T12:41:53.287Z,19.32
2022-10-18T12:43:25.573Z,19.52
2022-10-18T12:45:04.064Z,19.56
2022-10-18T12:46:45.092Z,19.63
2022-10-18T12:48:33.163Z,19.97
2022-10-18T12:50:22.636Z,19.91
2022-10-18T12:51:54.775Z,20.39
2022-10-18T12:53:26.931Z,20.51
2022-10-18T12:55:04.478Z,20.96
2022-10-18T12:56:41.717Z,20.75
2022-10-18T12:58:27.904Z,21.06
2022-10-18T12:59:59.507Z,21.43
2022-10-18T13:01:40.463Z,21.63
2022-10-18T13:04:00.606Z,20.82
2022-10-18T13:05:56.099Z,20.52
2022-10-18T13:07:40.975Z,20.99
2022-10-18T13:09:17.710Z,21.48
2022-10-18T13:10:49.481Z,21.94
2022-10-18T13:12:54.046Z,21.81
2022-10-18T13:15:07.075Z,21.63
2022-10-18T13:16:46.157Z,21.49
2022-10-18T13:18:19.519Z,21.29
2022-10-18T13:20:20.473Z,21.63
2022-10-18T13:21:50.346Z,21.77
2022-10-18T13:23:32.732Z,21.59
2022-10-18T13:25:13.303Z,21.32
2022-10-18T13:26:58.218Z,21.80
2022-10-18T13:28:51.814Z,21.97
2022-10-18T13:30:39.599Z,21.82
2022-10-18T13:32:17.946Z,21.73
2022-10-18T13:33:49.668Z,21.56
2022-10-18T13:35:44.668Z,21.49
2022-10-18T13:37:20.718Z,20.80
2022-10-18T13:39:02.058Z,20.90
2022-10-18T13:40:33.693Z,21.31
2022-10-18T13:42:30.721Z,21.44
2022-10-18T13:44:25.329Z,21.69
2022-10-18T13:45:57.154Z,21.55
2022-10-18T13:47:36.240Z,21.51
2022-10-18T13:49:20.849Z,21.83
2022-10-18T13:50:52.494Z,22.42
2022-10-18T13:52:26.429Z,22.10
2022-10-18T13:54:00.298Z,21.76
2022-10-18T13:55:42.558Z,22.00
2022-10-18T13:57:20.298Z,22.31
2022-10-18T13:59:13.645Z,22.46
2022-10-18T14:00:52.559Z,22.44
2022-10-18T14:02:52.321Z,22.55
2022-10-18T14:04:38.955Z,22.24
2022-10-18T14:06:11.647Z,22.52
2022-10-18T14:07:43.336Z,22.41
2022-10-18T14:09:26.212Z,22.57
2022-10-18T14:11:14.161Z,22.47
2022-10-18T14:12:47.802Z,21.63
2022-10-18T14:14:23.110Z,22.31
2022-10-18T14:15:58.624Z,21.91
2022-10-18T14:17:34.165Z,22.11
2022-10-18T14:19:12.026Z,22.08
2022-10-18T14:21:01.582Z,22.29
2022-10-18T14:22:38.377Z,21.92
2022-10-18T14:24:18.940Z,21.11
2022-10-18T14:25:50.588Z,20.23
2022-10-18T14:27:22.922Z,20.24
2022-10-18T14:29:05.151Z,20.50
2022-10-18T14:30:36.872Z,20.33
2022-10-18T14:32:10.965Z,20.00
2022-10-18T14:33:43.401Z,20.02
2022-10-18T14:35:34.082Z,19.55
2022-10-18T14:37:05.718Z,19.67
2022-10-18T14:38:38.433Z,19.32
2022-10-18T14:40:28.497Z,19.61
2022-10-18T14:42:00.650Z,19.68
2022-10-18T14:43:32.296Z,19.58
2022-10-18T14:45:17.698Z,19.50
2022-10-18T14:46:50.452Z,19.16
2022-10-18T14:48:23.667Z,18.95
2022-10-18T14:49:57.786Z,19.16
2022-10-18T14:51:32.233Z,18.92
2022-10-18T14:53:07.128Z,18.81
2022-10-18T14:54:38.857Z,18.72
2022-10-18T14:56:22.403Z,18.84
2022-10-18T14:57:54.103Z,19.00
2022-10-18T14:59:26.901Z,18.99
2022-10-18T15:00:58.569Z,19.19
2022-10-18T15:02:31.011Z,19.25
2022-10-18T15:04:06.145Z,19.44
2022-10-18T15:05:37.840Z,19.57
2022-10-18T15:07:16.174Z,19.45
2022-10-18T15:08:51.276Z,19.50
2022-10-18T15:10:23.797Z,19.28
2022-10-18T15:11:57.727Z,19.19
2022-10-18T15:13:30.018Z,19.11
2022-10-18T15:15:01.843Z,18.89
2022-10-18T15:16:33.521Z,19.02
2022-10-18T15:18:06.514Z,19.26
2022-10-18T15:19:41.829Z,19.21
2022-10-18T15:21:23.235Z,19.16
2022-10-18T15:22:54.949Z,19.17
2022-10-18T15:24:30.136Z,19.16
2022-10-18T15:26:03.249Z,19.27
2022-10-18T15:27:36.215Z,19.27
2022-10-18T15:29:16.358Z,19.30
2022-10-18T15:30:47.973Z,19.25
2022-10-18T15:32:21.583Z,19.18
2022-10-18T15:33:53.718Z,19.23
2022-10-18T15:35:29.061Z,19.22
2022-10-18T15:37:00.857Z,19.15
2022-10-18T15:38:32.738Z,19.14
2022-10-18T15:40:31.597Z,19.13
2022-10-18T15:42:03.495Z,19.13
2022-10-18T15:43:39.427Z,18.96
2022-10-18T15:45:28.029Z,18.85
2022-10-18T15:47:10.292Z,18.91
2022-10-18T15:48:42.071Z,18.80
2022-10-18T15:50:16.982Z,18.73
2022-10-18T15:51:50.424Z,18.73
2022-10-18T15:53:43.789Z,18.70
2022-10-18T15:55:47.742Z,18.75
2022-10-18T15:57:19.339Z,18.78
2022-10-18T15:58:51.391Z,18.75
2022-10-18T16:00:22.980Z,18.64
2022-10-18T16:01:54.790Z,18.61
2022-10-18T16:03:26.563Z,18.68
2022-10-18T16:04:58.855Z,18.60
2022-10-18T16:06:30.510Z,18.57
2022-10-18T16:08:03.532Z,18.52
2022-10-18T16:09:35.200Z,18.43
2022-10-18T16:11:07.139Z,18.39
2022-10-18T16:12:38.907Z,18.40
2022-10-18T16:14:11.030Z,18.35
2022-10-18T16:15:42.829Z,18.30
2022-10-18T16:17:16.960Z,18.25
2022-10-18T16:18:48.754Z,18.24
2022-10-18T16:20:21.397Z,18.11
2022-10-18T16:21:53.664Z,18.13
2022-10-18T16:23:28.489Z,18.13
2022-10-18T16:25:00.111Z,18.12
2022-10-18T16:26:31.799Z,18.04
2022-10-18T16:28:04.117Z,18.00
2022-10-18T16:29:35.765Z,17.90
2022-10-18T16:31:07.757Z,17.89
2022-10-18T16:32:40.413Z,17.71
2022-10-18T16:34:12.153Z,17.70
2022-10-18T16:35:43.952Z,17.68
2022-10-18T16:37:15.590Z,17.66
2022-10-18T16:38:48.716Z,17.72
2022-10-18T16:40:23.288Z,17.10
2022-10-18T16:41:55.273Z,17.04
2022-10-18T16:43:26.945Z,17.22
2022-10-18T16:44:58.647Z,17.20
2022-10-18T16:46:31.161Z,17.45
2022-10-18T16:48:02.918Z,17.53
2022-10-18T16:49:34.834Z,17.52
2022-10-18T16:51:06.719Z,17.47
2022-10-18T16:52:38.369Z,17.04
2022-10-18T16:54:11.471Z,17.01
2022-10-18T16:55:43.150Z,17.25
2022-10-18T16:57:15.795Z,16.89
2022-10-18T16:58:47.479Z,16.90
2022-10-18T17:00:20.927Z,16.82
2022-10-18T17:01:52.715Z,16.88
2022-10-18T17:03:24.638Z,16.62
2022-10-18T17:04:56.284Z,16.54
2022-10-18T17:06:29.280Z,16.76
2022-10-18T17:08:01.074Z,16.44
2022-10-18T17:09:35.885Z,16.04
2022-10-18T17:11:08.991Z,16.21
2022-10-18T17:12:40.745Z,16.56
2022-10-18T17:14:12.591Z,16.59
2022-10-18T17:15:44.337Z,16.47
2022-10-18T17:17:16.027Z,16.46
2022-10-18T17:18:47.684Z,16.50
2022-10-18T17:20:21.149Z,16.21
2022-10-18T17:21:52.835Z,16.49
2022-10-18T17:23:24.516Z,16.47
2022-10-18T17:24:57.693Z,16.46
2022-10-18T17:26:30.130Z,16.59
2022-10-18T17:28:02.157Z,16.57
2022-10-18T17:29:33.843Z,16.56
2022-10-18T17:31:06.516Z,16.45
2022-10-18T17:32:38.289Z,15.85
2022-10-18T17:34:09.928Z,15.82
2022-10-18T17:35:41.700Z,15.92
2022-10-18T17:37:13.856Z,16.06
2022-10-18T17:38:47.964Z,15.49
2022-10-18T17:40:23.792Z,16.00
2022-10-18T17:41:55.684Z,16.18
2022-10-18T17:43:27.429Z,16.00
2022-10-18T17:45:01.334Z,16.00
2022-10-18T17:46:32.956Z,16.03
2022-10-18T17:48:04.645Z,16.14
2022-10-18T17:49:36.296Z,15.60
2022-10-18T17:51:08.755Z,15.54
2022-10-18T17:54:12.897Z,15.61
2022-10-18T17:55:45.895Z,15.82
2022-10-18T17:57:17.549Z,15.87
2022-10-18T17:58:50.639Z,15.97
2022-10-18T18:00:24.497Z,15.84
2022-10-18T18:01:56.115Z,15.61
2022-10-18T18:03:27.849Z,15.37
2022-10-18T18:04:59.635Z,15.38
2022-10-18T18:06:33.456Z,15.34
2022-10-18T18:08:05.446Z,15.59
2022-10-18T18:09:37.219Z,15.33
2022-10-18T18:11:10.359Z,15.63
2022-10-18T18:12:43.902Z,15.55
2022-10-18T18:14:16.081Z,15.67
2022-10-18T18:15:47.715Z,15.46
2022-10-18T18:17:28.625Z,15.47
2022-10-18T18:19:09.522Z,15.19
2022-10-18T18:20:41.661Z,15.23
2022-10-18T18:22:14.041Z,15.64
2022-10-18T18:23:45.687Z,15.35
2022-10-18T18:25:17.488Z,15.26
2022-10-18T18:26:50.587Z,15.05
2022-10-18T18:28:22.260Z,15.30
2022-10-18T18:29:53.984Z,15.61
2022-10-18T18:31:25.736Z,15.79
2022-10-18T18:32:57.448Z,15.35
2022-10-18T18:34:29.084Z,15.52
2022-10-18T18:36:00.754Z,15.67
2022-10-18T18:37:32.519Z,15.66
2022-10-18T18:39:05.603Z,15.67
2022-10-18T18:40:37.328Z,15.65
2022-10-18T18:42:10.875Z,15.55
2022-10-18T18:43:43.621Z,15.71
2022-10-18T18:45:15.382Z,15.46
2022-10-18T18:46:47.334Z,15.57
2022-10-18T18:48:19.948Z,15.46
2022-10-18T18:49:51.836Z,15.57
2022-10-18T18:51:24.728Z,15.58
2022-10-18T18:52:56.469Z,15.57
2022-10-18T18:54:29.703Z,15.53
2022-10-18T18:56:02.783Z,15.29
2022-10-18T18:57:36.049Z,15.31
2022-10-18T18:59:07.936Z,15.36
2022-10-18T19:00:43.383Z,15.25
2022-10-18T19:02:16.164Z,15.42
2022-10-18T19:03:48.819Z,15.21
2022-10-18T19:05:20.558Z,15.24
2022-10-18T19:06:54.577Z,14.89
2022-10-18T19:08:30.680Z,14.96
2022-10-18T19:10:02.391Z,15.26
2022-10-18T19:11:35.470Z,14.88
2022-10-18T19:13:08.498Z,15.06
2022-10-18T19:14:40.127Z,15.06
2022-10-18T19:16:23.076Z,15.12
2022-10-18T19:17:55.169Z,15.00
2022-10-18T19:19:27.416Z,15.36
2022-10-18T19:20:59.067Z,15.48
2022-10-18T19:22:30.713Z,15.53
2022-10-18T19:24:02.484Z,15.63
2022-10-18T19:25:34.186Z,15.74
2022-10-18T19:27:09.571Z,15.67
2022-10-18T19:28:44.830Z,15.60
2022-10-18T19:30:16.570Z,15.54
2022-10-18T19:31:48.761Z,15.66
2022-10-18T19:33:35.541Z,15.51
2022-10-18T19:35:22.831Z,15.31
2022-10-18T19:36:54.589Z,15.52
2022-10-18T19:38:26.324Z,15.64
2022-10-18T19:39:58.625Z,15.67
2022-10-18T19:41:30.343Z,15.63
2022-10-18T19:43:02.101Z,15.72
2022-10-18T19:44:36.023Z,15.72
2022-10-18T19:46:07.698Z,15.52
2022-10-18T19:47:41.196Z,15.65
2022-10-18T19:49:12.889Z,15.61
2022-10-18T19:50:44.701Z,15.73
2022-10-18T19:52:22.630Z,15.72
2022-10-18T19:53:54.630Z,15.59
2022-10-18T19:55:27.168Z,15.48
2022-10-18T19:57:05.210Z,15.34
2022-10-18T19:58:36.881Z,15.24
2022-10-18T20:00:12.450Z,14.95
2022-10-18T20:01:45.344Z,14.98
2022-10-18T20:03:17.041Z,15.12
2022-10-18T20:04:48.681Z,15.17
2022-10-18T20:06:20.455Z,15.30
2022-10-18T20:07:52.253Z,15.04
2022-10-18T20:09:26.693Z,14.99
2022-10-18T20:11:00.473Z,15.17
2022-10-18T20:12:32.472Z,15.27
2022-10-18T20:14:05.563Z,15.11
2022-10-18T20:15:38.568Z,15.17
2022-10-18T20:17:12.901Z,15.27
2022-10-18T20:18:44.687Z,15.34
2022-10-18T20:20:16.386Z,15.42
2022-10-18T20:21:48.034Z,15.38
2022-10-18T20:23:19.787Z,15.27
2022-10-18T20:24:51.363Z,15.46
2022-10-18T20:26:23.168Z,15.42
2022-10-18T20:27:54.812Z,15.40
2022-10-18T20:29:26.802Z,15.35
2022-10-18T20:31:03.986Z,15.27